Terminal Aerodrome Forecast
Issued by NWS

Home | Current Version | Previous Version | Text Only | Print | Product List | Glossary On
Versions: 1 2 3 4 5 6 7 8 9 10 11 12 13 14 15 16
000
FTUS45 KBOI 250842 AAA
TAFMYL
TAF AMD
KMYL 250842Z 2509/2606 VRB04KT P6SM SCT020 SCT070
     FM251100 VRB03KT 1/2SM FZFG OVC002
     FM251800 17007KT P6SM BKN060
      TEMPO 2522/2524 -SHRA OVC070=

USA.gov is the U.S. government's official web portal to all federal, state and local government web resources and services.